Omega, GA (31775)

8:29 AM EDT on September 17, 2014 (GMT -0400)
Myers | Change Station
CLOSE
Current Station
Airport
Location: Henry Tift Myers AP, Tifton,,
Elevation: 354 ft
Nearby Weather Stations

Elev 354 ft 31.43 °N, 83.49 °W | Updated 19 minutes ago

Mostly Cloudy
Mostly Cloudy
70 °F
Feels Like 70 °F
N
4
Wind Variable Wind from NNW

Today
High -- | Low -- °F
--% Chance of Precip.
Yesterday
High -- | Low -- °F
Precip. -- in
7:19 AM 7:37 PM
Last Quarter, 36% visible
Pressure 29.95 in
Visibility 10.0 miles
Clouds Mostly Cloudy 12000 ft
Dew Point 70 °F
Humidity 98%
Rainfall 0.00 in
Snow Depth Not available.
UV 0 out of 12
Pollen 7.90 out of 12
Air Quality Not available.
Flu Activity Not available.
METAR KTMA 171210Z AUTO 34003KT 10SM BKN120 21/21 A2995 RMK AO2 T02130209 TSNO

More Conditions Fewer Conditions

Pressure 29.95 in
Visibility 10.0 miles
Clouds Mostly Cloudy 12000 ft
Dew Point 70 °F
Humidity 98%
Rainfall 0.00 in
Snow Depth Not available.
UV 0 out of 12
Pollen 7.90 out of 12
Air Quality Not available.
Flu Activity Not available.
METAR KTMA 171210Z AUTO 34003KT 10SM BKN120 21/21 A2995 RMK AO2 T02130209 TSNO

More Conditions Fewer Conditions

10-Day Weather Forecast

Almanac

Astronomy

Sep. 17, 2014 Rise Set
Actual Time 7:19 AM EDT 7:37 PM EDT
Civil Twilight 6:55 AM EDT 8:01 PM EDT
Nautical Twilight 6:26 AM EDT 8:30 PM EDT
Astronomical Twilight 5:58 AM EDT 8:58 PM EDT
Moon 1:34 AM EDT 3:31 PM EDT
Length of Visible Light 13h 06m
Length of Day
12h 17m
Tomorrow will be 1m 53s shorter.
Last Quarter, 36% of the Moon is Illuminated
Today
Last Quarter
Sep 24
New
Oct 1
First Quarter
Oct 8
Full
Oct 15
Last Quarter

Today's Extremes

State Highs State Lows

Community

WunderPhotos

Upload Photos

1,754,011 photos uploaded!

Nearby

Snow Depth

Station Depth Elevation
No new snow has been reported.

Earthquake Activity

City Distance Mag. Time & Date
No recent earthquake activity has been reported nearby.
Minimum magnitude displayed is 2.5.

Coastal Water Temperatures

Place Temperature
No Stations Reporting

Nearby Weather Stations